sensor_id;sensor_type;location;lat;lon;timestamp;temperature;humidity
1896;DHT22;1455;51.440;7.308;2024-02-23T03:32:28;7.40;99.90
1896;DHT22;1455;51.440;7.308;2024-02-23T03:39:18;7.20;99.90
1896;DHT22;1455;51.440;7.308;2024-02-23T03:42:44;7.40;99.90
1896;DHT22;1455;51.440;7.308;2024-02-23T03:45:30;7.50;99.90
1896;DHT22;1455;51.440;7.308;2024-02-23T03:48:17;7.30;99.90
1896;DHT22;1455;51.440;7.308;2024-02-23T03:51:03;7.40;99.90
1896;DHT22;1455;51.440;7.308;2024-02-23T03:53:49;7.30;99.90
1896;DHT22;1455;51.440;7.308;2024-02-23T03:56:39;7.30;99.90
1896;DHT22;1455;51.440;7.308;2024-02-23T03:59:25;7.30;99.90
1896;DHT22;1455;51.440;7.308;2024-02-23T04:02:11;7.20;99.90
1896;DHT22;1455;51.440;7.308;2024-02-23T04:04:58;7.30;99.90
1896;DHT22;1455;51.440;7.308;2024-02-23T04:07:43;7.30;99.90
1896;DHT22;1455;51.440;7.308;2024-02-23T04:10:29;7.20;99.90
1896;DHT22;1455;51.440;7.308;2024-02-23T04:13:15;7.20;99.90
1896;DHT22;1455;51.440;7.308;2024-02-23T04:16:02;7.20;99.90
1896;DHT22;1455;51.440;7.308;2024-02-23T04:18:48;7.40;99.90
1896;DHT22;1455;51.440;7.308;2024-02-23T04:21:35;7.20;99.90
1896;DHT22;1455;51.440;7.308;2024-02-23T04:24:21;7.10;99.90
1896;DHT22;1455;51.440;7.308;2024-02-23T04:27:07;7.30;99.90
1896;DHT22;1455;51.440;7.308;2024-02-23T04:29:53;7.30;99.90
1896;DHT22;1455;51.440;7.308;2024-02-23T04:32:39;7.30;99.90
1896;DHT22;1455;51.440;7.308;2024-02-23T04:35:25;7.30;99.90
1896;DHT22;1455;51.440;7.308;2024-02-23T04:38:12;7.20;99.90
1896;DHT22;1455;51.440;7.308;2024-02-23T04:40:58;7.30;99.90
1896;DHT22;1455;51.440;7.308;2024-02-23T04:43:44;7.30;99.90
1896;DHT22;1455;51.440;7.308;2024-02-23T04:46:31;7.20;99.90
1896;DHT22;1455;51.440;7.308;2024-02-23T04:49:18;7.20;99.90
1896;DHT22;1455;51.440;7.308;2024-02-23T04:52:05;7.10;99.90
1896;DHT22;1455;51.440;7.308;2024-02-23T04:54:52;7.20;99.90
1896;DHT22;1455;51.440;7.308;2024-02-23T04:57:38;7.20;99.90
1896;DHT22;1455;51.440;7.308;2024-02-23T05:00:24;7.20;99.90
1896;DHT22;1455;51.440;7.308;2024-02-23T05:03:16;7.30;99.90
1896;DHT22;1455;51.440;7.308;2024-02-23T05:06:02;7.20;99.90
1896;DHT22;1455;51.440;7.308;2024-02-23T05:08:48;7.00;99.90
1896;DHT22;1455;51.440;7.308;2024-02-23T05:11:36;7.20;99.90
1896;DHT22;1455;51.440;7.308;2024-02-23T05:14:21;7.30;99.90
1896;DHT22;1455;51.440;7.308;2024-02-23T05:17:07;7.30;99.90
1896;DHT22;1455;51.440;7.308;2024-02-23T05:19:52;7.30;99.90
1896;DHT22;1455;51.440;7.308;2024-02-23T05:22:40;7.20;99.90
1896;DHT22;1455;51.440;7.308;2024-02-23T05:25:25;7.30;99.90
1896;DHT22;1455;51.440;7.308;2024-02-23T05:28:13;7.30;99.90
1896;DHT22;1455;51.440;7.308;2024-02-23T05:31:01;7.40;99.90
1896;DHT22;1455;51.440;7.308;2024-02-23T05:33:48;7.40;99.90
1896;DHT22;1455;51.440;7.308;2024-02-23T05:36:33;7.30;99.90
1896;DHT22;1455;51.440;7.308;2024-02-23T05:39:19;7.30;99.90
1896;DHT22;1455;51.440;7.308;2024-02-23T05:42:05;7.30;99.90
1896;DHT22;1455;51.440;7.308;2024-02-23T05:44:52;7.30;99.90
1896;DHT22;1455;51.440;7.308;2024-02-23T05:47:38;7.30;99.90
1896;DHT22;1455;51.440;7.308;2024-02-23T05:50:25;7.10;99.90
1896;DHT22;1455;51.440;7.308;2024-02-23T05:53:11;7.40;99.90
1896;DHT22;1455;51.440;7.308;2024-02-23T05:55:57;7.20;99.90
1896;DHT22;1455;51.440;7.308;2024-02-23T05:58:42;7.10;99.90
1896;DHT22;1455;51.440;7.308;2024-02-23T06:01:29;7.20;99.90
1896;DHT22;1455;51.440;7.308;2024-02-23T06:04:15;7.30;99.90
1896;DHT22;1455;51.440;7.308;2024-02-23T06:07:01;7.10;99.90
1896;DHT22;1455;51.440;7.308;2024-02-23T06:09:46;7.00;99.90
1896;DHT22;1455;51.440;7.308;2024-02-23T06:12:32;6.90;99.90
1896;DHT22;1455;51.440;7.308;2024-02-23T06:15:18;6.90;99.90
1896;DHT22;1455;51.440;7.308;2024-02-23T06:18:05;6.80;99.90
1896;DHT22;1455;51.440;7.308;2024-02-23T06:20:51;6.90;99.90
1896;DHT22;1455;51.440;7.308;2024-02-23T06:23:37;6.70;99.90
1896;DHT22;1455;51.440;7.308;2024-02-23T06:26:27;6.80;99.90
1896;DHT22;1455;51.440;7.308;2024-02-23T06:29:13;6.80;99.90
1896;DHT22;1455;51.440;7.308;2024-02-23T08:31:21;7.90;99.90
1896;DHT22;1455;51.440;7.308;2024-02-23T08:34:07;8.00;99.90
1896;DHT22;1455;51.440;7.308;2024-02-23T08:36:53;8.20;99.90
1896;DHT22;1455;51.440;7.308;2024-02-23T08:39:40;8.10;99.90
1896;DHT22;1455;51.440;7.308;2024-02-23T08:42:27;8.20;99.90
1896;DHT22;1455;51.440;7.308;2024-02-23T08:45:13;8.20;99.90
1896;DHT22;1455;51.440;7.308;2024-02-23T08:48:00;8.20;99.90
1896;DHT22;1455;51.440;7.308;2024-02-23T08:50:47;8.30;99.90
1896;DHT22;1455;51.440;7.308;2024-02-23T08:53:33;8.30;99.90
1896;DHT22;1455;51.440;7.308;2024-02-23T08:56:19;8.40;99.90
1896;DHT22;1455;51.440;7.308;2024-02-23T08:59:04;8.10;99.90
1896;DHT22;1455;51.440;7.308;2024-02-23T09:01:50;8.10;99.90
1896;DHT22;1455;51.440;7.308;2024-02-23T09:04:38;8.20;99.90
1896;DHT22;1455;51.440;7.308;2024-02-23T09:07:24;8.30;99.90
1896;DHT22;1455;51.440;7.308;2024-02-23T09:10:10;8.20;99.90
1896;DHT22;1455;51.440;7.308;2024-02-23T09:12:56;8.20;99.90
1896;DHT22;1455;51.440;7.308;2024-02-23T09:15:42;8.30;99.90
1896;DHT22;1455;51.440;7.308;2024-02-23T09:18:32;8.30;99.90
1896;DHT22;1455;51.440;7.308;2024-02-23T09:21:19;8.50;99.90
1896;DHT22;1455;51.440;7.308;2024-02-23T09:24:06;8.40;99.90
1896;DHT22;1455;51.440;7.308;2024-02-23T09:26:53;8.50;99.90
1896;DHT22;1455;51.440;7.308;2024-02-23T09:29:42;8.50;99.90
1896;DHT22;1455;51.440;7.308;2024-02-23T09:32:29;8.70;99.90
1896;DHT22;1455;51.440;7.308;2024-02-23T09:35:15;8.70;99.90
1896;DHT22;1455;51.440;7.308;2024-02-23T09:38:03;8.80;99.90
1896;DHT22;1455;51.440;7.308;2024-02-23T09:40:48;8.80;99.90
1896;DHT22;1455;51.440;7.308;2024-02-23T09:43:34;8.70;99.90
1896;DHT22;1455;51.440;7.308;2024-02-23T09:46:20;8.70;99.90
1896;DHT22;1455;51.440;7.308;2024-02-23T09:49:06;8.70;99.90
1896;DHT22;1455;51.440;7.308;2024-02-23T09:51:52;8.60;99.90
1896;DHT22;1455;51.440;7.308;2024-02-23T09:54:43;8.60;99.90
1896;DHT22;1455;51.440;7.308;2024-02-23T09:57:29;8.80;99.90
1896;DHT22;1455;51.440;7.308;2024-02-23T10:00:15;8.90;99.90
1896;DHT22;1455;51.440;7.308;2024-02-23T10:03:01;9.00;99.90
1896;DHT22;1455;51.440;7.308;2024-02-23T10:05:46;8.90;99.90
1896;DHT22;1455;51.440;7.308;2024-02-23T10:08:32;8.90;99.90
1896;DHT22;1455;51.440;7.308;2024-02-23T10:11:20;8.80;99.90
1896;DHT22;1455;51.440;7.308;2024-02-23T10:14:06;8.70;99.90
1896;DHT22;1455;51.440;7.308;2024-02-23T10:16:52;8.50;99.90
1896;DHT22;1455;51.440;7.308;2024-02-23T10:19:38;8.60;99.90
1896;DHT22;1455;51.440;7.308;2024-02-23T10:22:24;8.70;99.90
1896;DHT22;1455;51.440;7.308;2024-02-23T10:25:13;8.90;99.90
1896;DHT22;1455;51.440;7.308;2024-02-23T10:28:00;8.90;99.90
1896;DHT22;1455;51.440;7.308;2024-02-23T10:30:47;8.80;99.90
1896;DHT22;1455;51.440;7.308;2024-02-23T10:33:35;8.90;99.90
1896;DHT22;1455;51.440;7.308;2024-02-23T10:36:23;8.90;99.90
1896;DHT22;1455;51.440;7.308;2024-02-23T10:39:10;9.00;99.90
1896;DHT22;1455;51.440;7.308;2024-02-23T10:41:57;9.20;99.90
1896;DHT22;1455;51.440;7.308;2024-02-23T10:44:45;9.30;99.90
1896;DHT22;1455;51.440;7.308;2024-02-23T10:47:31;9.50;99.90
1896;DHT22;1455;51.440;7.308;2024-02-23T10:50:18;9.40;99.90
1896;DHT22;1455;51.440;7.308;2024-02-23T10:53:04;9.40;99.90
1896;DHT22;1455;51.440;7.308;2024-02-23T10:55:56;9.50;99.90
1896;DHT22;1455;51.440;7.308;2024-02-23T10:58:44;9.60;99.90
1896;DHT22;1455;51.440;7.308;2024-02-23T11:01:31;9.70;99.90
1896;DHT22;1455;51.440;7.308;2024-02-23T11:04:19;9.80;99.90
1896;DHT22;1455;51.440;7.308;2024-02-23T11:07:13;9.90;99.90
1896;DHT22;1455;51.440;7.308;2024-02-23T11:09:59;10.00;99.90
1896;DHT22;1455;51.440;7.308;2024-02-23T11:12:47;10.30;99.90
1896;DHT22;1455;51.440;7.308;2024-02-23T11:15:42;10.40;99.90
1896;DHT22;1455;51.440;7.308;2024-02-23T11:18:29;10.40;99.90
1896;DHT22;1455;51.440;7.308;2024-02-23T11:21:16;10.30;99.90
1896;DHT22;1455;51.440;7.308;2024-02-23T11:24:03;10.30;99.90
1896;DHT22;1455;51.440;7.308;2024-02-23T11:26:49;10.20;99.90
1896;DHT22;1455;51.440;7.308;2024-02-23T11:29:35;10.20;99.90
1896;DHT22;1455;51.440;7.308;2024-02-23T11:32:23;10.00;99.90
1896;DHT22;1455;51.440;7.308;2024-02-23T11:35:22;10.00;99.90
1896;DHT22;1455;51.440;7.308;2024-02-23T11:38:11;10.20;99.90
1896;DHT22;1455;51.440;7.308;2024-02-23T11:40:57;10.30;99.90
1896;DHT22;1455;51.440;7.308;2024-02-23T11:43:42;10.10;99.90
1896;DHT22;1455;51.440;7.308;2024-02-23T11:46:28;10.40;99.90
1896;DHT22;1455;51.440;7.308;2024-02-23T11:49:14;10.40;99.90
1896;DHT22;1455;51.440;7.308;2024-02-23T11:52:02;10.50;99.90
1896;DHT22;1455;51.440;7.308;2024-02-23T11:54:48;10.60;99.90
1896;DHT22;1455;51.440;7.308;2024-02-23T11:57:34;10.70;99.90
1896;DHT22;1455;51.440;7.308;2024-02-23T12:00:20;10.30;99.90
1896;DHT22;1455;51.440;7.308;2024-02-23T12:03:06;10.30;99.90
1896;DHT22;1455;51.440;7.308;2024-02-23T12:06:58;10.20;99.90
1896;DHT22;1455;51.440;7.308;2024-02-23T12:09:19;10.20;99.90
1896;DHT22;1455;51.440;7.308;2024-02-23T12:12:06;10.10;99.90
1896;DHT22;1455;51.440;7.308;2024-02-23T12:14:52;10.10;99.90
1896;DHT22;1455;51.440;7.308;2024-02-23T12:17:50;10.00;99.90
1896;DHT22;1455;51.440;7.308;2024-02-23T12:21:08;9.90;99.90
1896;DHT22;1455;51.440;7.308;2024-02-23T12:24:11;9.70;99.90
1896;DHT22;1455;51.440;7.308;2024-02-23T12:27:41;9.80;99.90
1896;DHT22;1455;51.440;7.308;2024-02-23T12:30:43;9.80;99.90
1896;DHT22;1455;51.440;7.308;2024-02-23T12:37:35;9.80;99.90
1896;DHT22;1455;51.440;7.308;2024-02-23T12:40:41;9.60;99.90
1896;DHT22;1455;51.440;7.308;2024-02-23T12:44:07;9.80;99.90
1896;DHT22;1455;51.440;7.308;2024-02-23T12:46:54;9.80;99.90
1896;DHT22;1455;51.440;7.308;2024-02-23T12:49:54;9.80;99.90
1896;DHT22;1455;51.440;7.308;2024-02-23T12:53:09;10.10;99.90
1896;DHT22;1455;51.440;7.308;2024-02-23T12:58:08;9.70;99.90
1896;DHT22;1455;51.440;7.308;2024-02-23T12:59:47;9.60;99.90
1896;DHT22;1455;51.440;7.308;2024-02-23T13:02:38;9.80;99.90
1896;DHT22;1455;51.440;7.308;2024-02-23T13:05:27;9.90;99.90
1896;DHT22;1455;51.440;7.308;2024-02-23T13:12:33;10.00;99.90
1896;DHT22;1455;51.440;7.308;2024-02-23T13:19:20;10.00;99.90
1896;DHT22;1455;51.440;7.308;2024-02-23T13:22:50;10.20;99.90
1896;DHT22;1455;51.440;7.308;2024-02-23T13:25:29;10.10;99.90
1896;DHT22;1455;51.440;7.308;2024-02-23T13:28:18;10.10;99.90
